• Join FlightAware (Why Join?)
  • Login
  • US Flag 
01:46AM EST


 

Airport Tracker/Info


-or-


 

Live Flight TrackerFlight Track Log ✈ VRT51 ✈ 04-Jan-2014 ✈ TIST / STT - KFLL

Flight Track Log - Related Links

Times and Time Zones

All times are in EST time to prevent confusion due to time zone crossing. See the VRT51 flight status page for this flight to view local times or setup timezone preferences in your user account.

Time Position Orientation Groundspeed Altitude Reporting Facility
EST Latitude Longitude Course Direction KTS MPH feet Rate Location/Type
01:27PM 18.3333 -64.9333 198° South 180 207 800  Level San Juan Center
01:28PM 18.2833 -64.9500 198° South 280 322 2,800 2,760 Climbing San Juan Center
01:29PM 18.2333 -65.0167 232° Southwest 270 311 6,400 2,880 Climbing San Juan Center
01:30PM 18.1833 -65.0833 232° Southwest 290 334 8,600 1,800 Climbing San Juan Center
01:31PM 18.1667 -65.1667 258° West 360 414 10,000 660 Climbing San Juan Center
01:32PM 18.1500 -65.2667 260° West 330 380 10,000  Level San Juan Center
01:33PM 18.1500 -65.3667 270° West 320 368 10,000 300 Level San Juan Center
01:34PM 18.1500 -65.4500 270° West 310 357 10,700 1,800 Climbing San Juan Center
01:35PM 18.1167 -65.5500 251° West 350 403 13,600 3,300 Climbing San Juan Center
01:36PM 18.0667 -65.6333 238° Southwest 360 414 17,400 2,220 Climbing San Juan Center
01:37PM 18.0333 -65.7500 253° West 410 472 18,100 900 Climbing San Juan Center
01:38PM 17.9833 -65.8667 246° West 410 472 19,300 2,400 Climbing San Juan Center
01:39PM 18.0167 -65.9833 287° West 410 472 22,900 3,600 Climbing San Juan Center
01:40PM 18.0500 -66.0667 293° West 360 414 26,500 2,700 Climbing San Juan Center
01:41PM 18.1000 -66.1667 298° West 380 437 28,300 1,860 Climbing San Juan Center
01:42PM 18.1333 -66.2833 287° West 380 437 30,300 1,440 Climbing San Juan Center
01:43PM 18.1833 -66.3833 298° West 400 460 31,300 900 Climbing San Juan Center
01:44PM 18.2333 -66.4833 298° West 410 472 32,100 360 Climbing San Juan Center
01:45PM 18.2833 -66.6167 292° West 440 506 32,100  Level San Juan Center
01:46PM 18.3333 -66.7167 298° West 430 495 32,100 180 Level San Juan Center
01:47PM 18.3667 -66.8167 289° West 410 472 32,500 780 Climbing San Juan Center
01:48PM 18.4167 -66.9333 294° West 410 472 33,700 780 Climbing San Juan Center
01:49PM 18.4667 -67.0500 294° West 430 495 34,100 300 Climbing San Juan Center
01:50PM 18.5167 -67.1500 298° West 410 472 34,400 1,200 Climbing San Juan Center
01:51PM 18.6000 -67.2333 317° Northwest 390 449 36,500 1,740 Climbing San Juan Center
01:52PM 18.6667 -67.3333 305° West 370 426 38,000 1,140 Climbing San Juan Center
01:53PM 18.7167 -67.4167 302° West 370 426 38,800 780 Climbing San Juan Center
01:54PM 18.7833 -67.5000 310° West 360 414 39,600 600 Climbing San Juan Center
01:55PM 18.8500 -67.5833 310° West 380 437 40,100 420 Climbing San Juan Center
01:56PM 18.9167 -67.6833 305° West 400 460 40,500 420 Climbing San Juan Center
01:57PM 18.9833 -67.7667 310° West 390 449 41,000 420 Climbing San Juan Center
01:58PM 19.0667 -67.8667 311° West 400 460 41,400 420 Climbing San Juan Center
01:59PM 19.1333 -67.9500 310° West 400 460 41,900 360 Climbing San Juan Center
02:00PM 19.2000 -68.0500 305° West 400 460 42,200 360 Climbing San Juan Center
02:01PM 19.2667 -68.1333 310° West 400 460 42,700 360 Climbing San Juan Center
02:02PM 19.3333 -68.2333 305° West 400 460 43,000 120 Climbing San Juan Center
02:03PM 19.4000 -68.3333 305° West 400 460 43,000  Level San Juan Center
02:04PM 19.4833 -68.4333 311° West 420 483 43,000  Level San Juan Center
02:05PM 19.5500 -68.5167 310° West 420 483 43,000  Level San Juan Center
02:06PM 19.6167 -68.6167 305° West 420 483 43,000  Level San Juan Center
02:07PM 19.6883 -68.6986 313° West 420 483 43,000  Level Miami Center
02:08PM 19.7464 -68.7742 309° West 458 527 43,000  Level Miami Center
02:09PM 19.8178 -68.8689 309° West 450 518 43,000  Level Miami Center
02:10PM 19.8892 -68.9661 308° West 435 501 43,000  Level Miami Center
02:11PM 19.9586 -69.0636 307° West 423 487 43,000  Level Miami Center
02:12PM 20.0258 -69.1589 307° West 418 481 43,000  Level Miami Center
02:13PM 20.0931 -69.2564 306° West 418 481 43,000  Level Miami Center
02:14PM 20.1603 -69.3542 306° West 418 481 43,000  Level Miami Center
02:15PM 20.2253 -69.4500 306° West 407 468 43,000  Level Miami Center
02:16PM 20.2903 -69.5503 305° West 407 468 43,000  Level Miami Center
02:17PM 20.3553 -69.6506 305° West 412 474 43,000  Level Miami Center
02:18PM 20.4206 -69.7508 305° West 412 474 43,000  Level Miami Center
02:19PM 20.4853 -69.8492 305° West 412 474 43,000  Level Miami Center
02:20PM 20.5522 -69.9497 305° West 412 474 43,000  Level Miami Center
02:21PM 20.6172 -70.0483 305° West 412 474 43,000  Level Miami Center
02:22PM 20.6797 -70.1492 304° West 412 474 43,000  Level Miami Center
02:23PM 20.7444 -70.2481 305° West 412 474 43,000  Level Miami Center
02:24PM 20.8111 -70.3467 306° West 412 474 43,000  Level Miami Center
02:25PM 20.8803 -70.4542 305° West 412 474 43,000  Level Miami Center
02:26PM 20.9447 -70.5533 305° West 406 467 43,000  Level Miami Center
02:27PM 21.0072 -70.6525 304° West 411 473 43,000  Level Miami Center
02:28PM 21.0739 -70.7539 305° West 411 473 43,000  Level Miami Center
02:29PM 21.1381 -70.8533 305° West 411 473 43,000  Level Miami Center
02:30PM 21.2025 -70.9525 305° West 411 473 43,000  Level Miami Center
02:31PM 21.2625 -71.0522 303° West 405 466 43,000  Level Miami Center
02:32PM 21.3181 -71.1433 303° West 410 472 43,000  Level Miami Center
02:33PM 21.3803 -71.2475 303° West 410 472 43,000  Level Miami Center
02:34PM 21.4617 -71.3622 307° West 443 510 43,000  Level Miami Center
02:35PM 21.5211 -71.4492 306° West 422 486 43,000  Level Miami Center
02:36PM 21.5850 -71.5492 305° West 413 475 43,000  Level Miami Center
02:37PM 21.6469 -71.6469 304° West 408 470 43,000  Level Miami Center
02:38PM 21.7131 -71.7494 305° West 408 470 43,000  Level Miami Center
02:39PM 21.7767 -71.8497 304° West 408 470 43,000  Level Miami Center
02:40PM 21.8383 -71.9481 304° West 408 470 43,000  Level Miami Center
02:41PM 21.9022 -72.0483 304° West 408 470 43,000  Level Miami Center
02:42PM 21.9678 -72.1489 305° West 408 470 43,000  Level Miami Center
02:43PM 22.0314 -72.2497 304° West 408 470 43,000  Level Miami Center
02:44PM 22.0972 -72.3525 305° West 413 475 43,000  Level Miami Center
02:45PM 22.1586 -72.4536 303° West 413 475 43,000  Level Miami Center
02:46PM 22.2242 -72.5569 304° West 413 475 43,000  Level Miami Center
02:47PM 22.2875 -72.6556 305° West 408 470 43,000  Level Miami Center
02:48PM 22.3508 -72.7569 304° West 408 470 43,000  Level Miami Center
02:49PM 22.4142 -72.8606 303° West 408 470 43,000  Level Miami Center
02:50PM 22.4794 -72.9617 305° West 414 476 43,000  Level Miami Center
02:51PM 22.5425 -73.0656 303° West 409 471 43,000  Level Miami Center
02:52PM 22.5994 -73.1650 302° West 409 471 43,000  Level Miami Center
02:53PM 22.6664 -73.2667 306° West 409 471 43,000  Level Miami Center
02:54PM 22.7317 -73.3708 304° West 409 471 43,000  Level Miami Center
02:55PM 22.7925 -73.4706 304° West 409 471 43,000  Level Miami Center
02:56PM 22.8531 -73.5703 303° West 409 471 43,000  Level Miami Center
02:57PM 22.9136 -73.6703 303° West 409 471 43,000  Level Miami Center
02:58PM 22.9786 -73.7722 305° West 409 471 43,000  Level Miami Center
02:59PM 23.0411 -73.8725 304° West 409 471 43,000  Level Miami Center
03:00PM 23.1036 -73.9725 304° West 409 471 43,000  Level Miami Center
03:01PM 23.1786 -74.0681 311° West 409 471 43,000  Level Miami Center
03:02PM 23.2492 -74.1614 309° West 409 471 43,000  Level Miami Center
03:03PM 23.3239 -74.2547 311° West 409 471 43,000  Level Miami Center
03:04PM 23.3967 -74.3483 310° West 409 471 43,000  Level Miami Center
03:05PM 23.4714 -74.4419 311° West 409 471 43,000  Level Miami Center
03:06PM 23.5439 -74.5358 310° West 409 471 43,000  Level Miami Center
03:07PM 23.6017 -74.6369 302° West 404 465 43,000  Level Miami Center
03:08PM 23.6617 -74.7400 302° West 398 458 43,000  Level Miami Center
03:09PM 23.7197 -74.8436 301° West 398 458 43,000  Level Miami Center
03:10PM 23.7814 -74.9447 304° West 398 458 43,000  Level Miami Center
03:11PM 23.8372 -75.0461 301° West 398 458 43,000  Level Miami Center
03:12PM 23.8969 -75.1497 302° West 398 458 43,000  Level Miami Center
03:13PM 23.9564 -75.2514 303° West 398 458 43,000  Level Miami Center
03:14PM 24.0161 -75.3550 302° West 398 458 43,000 -480 Level Miami Center
03:16PM 24.1372 -75.5700 302° West 409 471 41,600 -780 Descending Miami Center
03:17PM 24.1967 -75.6764 302° West 414 476 40,800 -840 Descending Miami Center
03:18PM 24.2517 -75.7761 301° West 407 468 40,000 -420 Descending Miami Center
03:19PM 24.3067 -75.8739 302° West 394 453 40,000  Level Miami Center
03:20PM 24.3639 -75.9758 302° West 389 448 40,000  Level Miami Center
03:21PM 24.4208 -76.0758 302° West 389 448 40,000  Level Miami Center
03:22PM 24.4778 -76.1783 301° West 389 448 40,000  Level Miami Center
03:23PM 24.5347 -76.2808 301° West 389 448 40,000  Level Miami Center
03:24PM 24.5914 -76.3811 302° West 389 448 40,000  Level Miami Center
03:25PM 24.6461 -76.4817 301° West 384 442 40,000  Level Miami Center
03:26PM 24.7028 -76.5842 301° West 384 442 40,000 -480 Level Miami Center
03:27PM 24.7614 -76.6872 302° West 384 442 39,100 -1,080 Descending Miami Center
03:28PM 24.8158 -76.7878 301° West 384 442 37,900 -1,200 Descending Miami Center
03:29PM 24.8722 -76.8931 301° West 384 442 36,800 -960 Descending Miami Center
03:30PM 24.9308 -76.9964 302° West 389 448 36,000 -420 Descending Miami Center
03:31PM 24.9892 -77.1019 301° West 400 460 36,000  Level Miami Center
03:32PM 25.0475 -77.2097 301° West 400 460 36,000  Level Miami Center
03:33PM 25.1078 -77.3133 303° West 400 460 36,000  Level Miami Center
03:34PM 25.1681 -77.4214 302° West 405 466 36,000 -600 Level Miami Center
03:35PM 25.2303 -77.5411 300° West 405 466 34,900 -1,080 Descending Miami Center
03:36PM 25.2861 -77.6472 300° West 400 460 33,900 -1,020 Descending Miami Center
03:37PM 25.3419 -77.7533 300° West 400 460 32,900 -1,440 Descending Miami Center
03:38PM 25.3872 -77.8664 294° West 400 460 31,100 -1,920 Descending Miami Center
03:39PM 25.4178 -77.9861 286° West 400 460 29,100 -2,040 Descending Miami Center
03:40PM 25.4503 -78.1061 287° West 405 466 27,100 -2,040 Descending Miami Center
03:41PM 25.4806 -78.2261 286° West 405 466 25,100 -1,560 Descending Miami Center
03:42PM 25.5147 -78.3486 287° West 405 466 24,000 -600 Descending Miami Center
03:43PM 25.5450 -78.4619 287° West 398 458 24,000  Level Miami Center
03:44PM 25.5750 -78.5797 286° West 398 458 24,000 -420 Level Miami Center
03:45PM 25.6047 -78.7092 284° West 411 473 23,200 -1,380 Descending Miami Center
03:46PM 25.6347 -78.8203 287° West 425 489 21,300 -2,160 Descending Miami Center
03:47PM 25.6706 -78.9383 289° West 418 481 18,900 -2,220 Descending Miami Center
03:48PM 25.7064 -79.0636 288° West 418 481 16,900 -2,160 Descending Miami Center
03:49PM 25.7381 -79.1842 286° West 418 481 14,600 -2,400 Descending Miami Center
03:50PM 25.7653 -79.3069 284° West 410 472 12,100 -2,580 Descending Miami Center
03:51PM 25.7944 -79.4253 285° West 394 453 9,500 -2,460 Descending Miami Center
03:52PM 25.8161 -79.5064 287° West 330 380 7,200 -2,520 Descending Miami Center
03:52PM 25.8239 -79.5389 285° West 294 338 6,400 -1,320 Descending Miami Center
03:53PM 25.8439 -79.5903 293° West 307 353 5,900 -420 Descending Miami Center
03:53PM 25.8453 -79.6203 273° West 273 314 6,000  Climbing Miami Center
03:54PM 25.8653 -79.6714 294° West 288 331 5,900  Descending Miami Center
03:54PM 25.8772 -79.6994 295° West 272 313 6,000  Climbing Miami Center
03:55PM 25.9033 -79.7556 297° West 282 325 5,900  Descending Miami Center
03:55PM 25.9072 -79.7717 285° West 282 325 6,000  Climbing Miami Center
03:56PM 25.9394 -79.8350 300° West 282 325 5,900  Descending Miami Center
03:56PM 25.9450 -79.8581 285° West 286 329 6,000  Climbing Miami Center
03:57PM 25.9711 -79.9119 298° West 282 325 5,900  Descending Miami Center
03:57PM 25.9792 -79.9353 291° West 277 319 6,000  Climbing Miami Center
03:58PM 26.0094 -79.9822 306° West 277 319 5,900  Descending Miami Center
03:58PM 26.0194 -80.0056 296° West 267 307 6,000  Climbing Miami Center
03:59PM 26.0558 -80.0506 312° West 272 313 5,900  Descending Miami Center
03:59PM 26.0639 -80.0694 295° West 268 308 6,000  Climbing Miami Center
04:00PM 26.1025 -80.1167 312° West 272 313 5,900 -120 Descending Miami Center
04:00PM 26.1167 -80.1425 301° West 231 266 5,900 -480 Level Miami Center
04:01PM 26.1469 -80.1894 306° West 202 232 5,300 -900 Descending Miami Center
04:02PM 26.1472 -80.2589 270° West 202 232 4,100 -660 Descending Miami Center
04:03PM 26.1461 -80.3167 269° West 205 236 4,000 -120 Descending Miami Center
04:04PM 26.1444 -80.3839 268° West 209 241 3,900  Descending Miami Center
04:05PM 26.1428 -80.4486 268° West 204 235 4,000  Climbing Miami Center
04:06PM 26.1006 -80.4706 205° Southwest 202 232 3,900 -540 Descending Miami Center
04:07PM 26.0767 -80.4258 121° Southeast 174 200 3,000 -840 Descending Miami Center
04:08PM 26.0758 -80.3656 91° East 159 183 2,100 -480 Descending Miami Center
04:09PM 26.0750 -80.3169 91° East 158 182 2,000 -60 Descending Miami Center
04:10PM 26.0742 -80.2661 91° East 170 196 2,000 -540 Level Miami Center
04:11PM 26.0753 -80.2200 88° East 162 186 1,000 -960 Descending Miami Center
04:12PM 26.0739 -80.1853 93° East 112 129 300 -780 Descending Miami Center